VTSMVTSP

Guest
Details From VTSM - Samui
To VTSP - Phuket Intl
Flight Number -
Tags generated
Created
Modified
Stats Distance 138 nm / 256 km
Max Altitude 16,700 ft / 5,090 m
Waypoints 3
Social Downloads 4
Likes 0
Share VATSIM

Download

Looking for another format? Having issues loading an existing format? Contact us
Advertisement - Login to hide

Notes

Basic altitude profile: - Ascent Rate: 2500ft/min - Ascent Speed: 250kts - Cruise Altitude: 35000ft - Cruise Speed: 420kts - Descent Rate: 1500ft/min - Descent Speed: 250kts

Route

VTSM STN VTSP

ID Type Via Altitude Latitude Longitude Leg Dist Tot Dist Heading (true) Name
O VTSM APT - 0 ft / 0 m 9.54794˚ 100.06246˚ - 0 nm - Samui
STN VOR - 16,700 ft / 5,090 m 9.12951˚ 99.13475˚ 60 nm 60 nm 246° / 245° SURAT THANI VOR-DME
O VTSP APT - 0 ft / 0 m 8.11320˚ 98.31687˚ 77 nm 138 nm 219° / 218° Phuket Intl

Altitude Profile

Advertisement - Login to hide

VTSM

Details ICAO VTSM (USM)
Name Samui
Region Thailand
Timezone Asia/Bangkok (UTC+7.0)
Stats Elevation 64 ft / 20 m (AMSL)
Location 9.547939° 100.062457°
Runways 1
Magnetic Variation 0.385° W

METAR

VTSM 110430Z 12007KT 9999 FEW020 31/23 Q1014

Decode

TAF

TAF VTSM 102300Z 1100/1124 03005KT 9999 FEW020

Decode

Departure Runways

ID Width Length Bearing (true) Bearing (mag) Surface Threshold Offset Overrun Length
17 148 ft / 45 m 6,795 ft / 2,071 m 174.49° 174.87° Asphalt 853 ft / 260 m 148 ft / 45 m
35 148 ft / 45 m 6,795 ft / 2,071 m 354.49° 354.87° Asphalt 1,109 ft / 338 m 197 ft / 60 m

VTSP

Details ICAO VTSP (HKT)
Name Phuket Intl
Region Thailand
Timezone Asia/Bangkok (UTC+7.0)
Stats Elevation 82 ft / 25 m (AMSL)
Location 8.113199° 98.316871°
Runways 1
Magnetic Variation 0.433° W

METAR

VTSP 110430Z 08009KT 050V130 9999 FEW020 30/21 Q1014 NOSIG

Decode

TAF

TAF VTSP 102300Z 1100/1206 VRB03KT 9000 FEW020 BECMG 1100/1102 08006KT 9999 FEW020 BKN100 BECMG 1107/1109 28008KT PROB30 TEMPO 1110/1114 VRB10G25KT 3000 TSRA FEW016CB SCT020 BKN100 BECMG 1112/1114 VRB03KT 9000

Decode

Destination Runways

ID Width Length Bearing (true) Bearing (mag) Surface Threshold Offset Overrun Length
09 148 ft / 45 m 9,870 ft / 3,008 m 84.45° 84.88° Asphalt 0 ft / 0 m 197 ft / 60 m
27 148 ft / 45 m 9,870 ft / 3,008 m 264.46° 264.89° Asphalt 0 ft / 0 m 197 ft / 60 m

Approach Navaids

Runway Type Ident Frequency Range Bearing (true) Bearing (mag) Slope Elevation
27 Localiser IPKT 109.90 MHz 18 nm / 33 km 263.45° 263.89° - 19 ft / 6 m (AMSL)
27 Glidescope IPKT 109.90 MHz 10 nm / 19 km 263.45° 263.89° 3.20° 82 ft / 25 m (AMSL)
27 DME IPKT 109.90 MHz 18 nm / 33 km - - - 82 ft / 25 m (AMSL)

Popular Alternatives